createdAt,value
2019-03-06T00:02:13.646Z,5.15
2019-03-06T00:04:40.288Z,5.03
2019-03-06T00:07:07.203Z,5.14
2019-03-06T00:09:33.848Z,4.97
2019-03-06T00:12:00.501Z,5.05
2019-03-06T00:14:27.093Z,4.84
2019-03-06T00:16:54.553Z,5.04
2019-03-06T00:19:21.122Z,4.90
2019-03-06T00:21:47.846Z,4.83
2019-03-06T00:24:14.616Z,5.04
2019-03-06T00:26:41.387Z,4.82
2019-03-06T00:29:08.072Z,5.04
2019-03-06T00:31:35.014Z,4.99
2019-03-06T00:34:01.666Z,5.28
2019-03-06T00:36:30.392Z,4.85
2019-03-06T00:38:57.256Z,4.76
2019-03-06T00:41:25.792Z,4.88
2019-03-06T00:43:52.413Z,5.04
2019-03-06T00:46:19.129Z,5.08
2019-03-06T00:48:45.727Z,5.14
2019-03-06T00:51:12.409Z,4.87
2019-03-06T00:53:39.132Z,4.95
2019-03-06T00:56:06.026Z,4.92
2019-03-06T00:58:32.799Z,5.09
2019-03-06T01:00:59.579Z,5.05
2019-03-06T01:03:26.311Z,4.94
2019-03-06T01:05:53.214Z,5.01
2019-03-06T01:08:20.091Z,5.19
2019-03-06T01:10:46.891Z,4.88
2019-03-06T01:13:13.494Z,5.01
2019-03-06T01:15:40.289Z,4.98
2019-03-06T01:18:06.995Z,4.85
2019-03-06T01:20:33.885Z,5.05
2019-03-06T01:23:00.657Z,4.98
2019-03-06T01:25:27.430Z,4.94
2019-03-06T01:27:54.437Z,5.03
2019-03-06T01:30:25.559Z,4.91
2019-03-06T01:32:54.301Z,5.22
2019-03-06T01:35:22.803Z,5.29
2019-03-06T01:37:51.390Z,4.94
2019-03-06T01:40:20.309Z,5.17
2019-03-06T01:42:48.925Z,5.12
2019-03-06T01:45:15.815Z,5.03
2019-03-06T01:47:42.399Z,5.13
2019-03-06T01:50:10.467Z,4.98
2019-03-06T01:52:37.046Z,5.12
2019-03-06T01:55:09.384Z,4.90
2019-03-06T01:57:36.113Z,5.03
2019-03-06T02:00:08.051Z,4.90
2019-03-06T02:02:34.928Z,5.15
2019-03-06T02:05:01.636Z,5.19
2019-03-06T02:07:28.890Z,5.06
2019-03-06T02:09:55.860Z,4.98
2019-03-06T02:12:22.642Z,5.00
2019-03-06T02:14:49.451Z,4.82
2019-03-06T02:17:16.355Z,4.93
2019-03-06T02:19:43.112Z,4.99
2019-03-06T02:22:10.015Z,4.90
2019-03-06T02:24:36.697Z,4.89
2019-03-06T02:27:03.514Z,5.03
2019-03-06T02:29:30.132Z,4.86
2019-03-06T02:31:56.917Z,4.99
2019-03-06T02:34:23.862Z,4.77
2019-03-06T02:36:50.610Z,4.83
2019-03-06T02:39:17.276Z,5.04
2019-03-06T02:41:43.849Z,4.84
2019-03-06T02:44:11.602Z,4.91
2019-03-06T02:46:40.086Z,5.12
2019-03-06T02:49:06.820Z,5.06
2019-03-06T02:51:33.677Z,4.95
2019-03-06T02:54:00.418Z,4.86
2019-03-06T02:57:23.532Z,5.08
2019-03-06T02:59:52.148Z,5.06
2019-03-06T03:02:20.839Z,5.09
2019-03-06T03:04:49.313Z,4.98
2019-03-06T03:07:15.894Z,5.08
2019-03-06T03:09:42.672Z,4.86
2019-03-06T03:12:11.245Z,4.80
2019-03-06T03:14:38.126Z,4.83
2019-03-06T03:17:06.047Z,4.73
2019-03-06T03:19:32.919Z,4.79
2019-03-06T03:21:59.914Z,4.27
2019-03-06T03:24:26.503Z,3.98
2019-03-06T03:26:53.124Z,4.07
2019-03-06T03:29:19.853Z,4.20
2019-03-06T03:31:46.570Z,4.36
2019-03-06T03:34:13.458Z,4.39
2019-03-06T03:36:40.205Z,4.45
2019-03-06T03:39:07.438Z,4.21
2019-03-06T03:41:34.676Z,4.27
2019-03-06T03:44:01.257Z,4.22
2019-03-06T03:46:28.121Z,4.15
2019-03-06T03:48:54.698Z,4.08
2019-03-06T03:51:21.677Z,3.95
2019-03-06T03:53:48.649Z,3.88
2019-03-06T03:56:15.327Z,3.94
2019-03-06T03:58:42.096Z,3.96
2019-03-06T04:01:08.954Z,3.92
2019-03-06T04:03:35.537Z,3.86
2019-03-06T04:06:02.128Z,3.88
2019-03-06T04:08:28.757Z,3.92
2019-03-06T04:10:55.400Z,3.86
2019-03-06T04:13:22.059Z,3.87
2019-03-06T04:15:48.914Z,3.98
2019-03-06T04:18:15.494Z,3.99
2019-03-06T04:20:42.269Z,3.76
2019-03-06T04:23:09.128Z,3.54
2019-03-06T04:25:35.905Z,3.53
2019-03-06T04:28:02.666Z,3.58
2019-03-06T04:30:29.301Z,3.61
2019-03-06T04:32:55.979Z,3.77
2019-03-06T04:35:22.715Z,3.40
2019-03-06T04:37:49.765Z,3.35
2019-03-06T04:40:16.995Z,3.19
2019-03-06T04:42:43.787Z,3.18
2019-03-06T04:45:15.031Z,2.98
2019-03-06T04:47:41.609Z,2.96
2019-03-06T04:50:11.915Z,2.89
2019-03-06T04:52:40.220Z,3.14
2019-03-06T04:55:09.418Z,3.34
2019-03-06T04:57:37.325Z,3.38
2019-03-06T05:00:09.654Z,3.30
2019-03-06T05:02:36.513Z,3.34
2019-03-06T05:05:04.009Z,3.26
2019-03-06T05:07:30.577Z,3.14
2019-03-06T05:09:57.216Z,3.23
2019-03-06T05:12:23.786Z,3.31
2019-03-06T05:14:50.420Z,3.37
2019-03-06T05:17:18.979Z,3.50
2019-03-06T05:19:46.103Z,3.50
2019-03-06T05:22:12.771Z,3.39
2019-03-06T05:24:39.531Z,3.12
2019-03-06T05:27:06.447Z,3.31
2019-03-06T05:29:33.033Z,3.04
2019-03-06T05:32:05.322Z,3.08
2019-03-06T05:34:32.228Z,3.20
2019-03-06T05:37:04.587Z,3.27
2019-03-06T05:39:31.173Z,2.97
2019-03-06T05:41:57.806Z,3.10
2019-03-06T05:44:24.730Z,3.06
2019-03-06T05:46:51.638Z,3.15
2019-03-06T05:49:18.228Z,3.26
2019-03-06T05:51:44.984Z,3.35
2019-03-06T05:54:11.598Z,3.29
2019-03-06T05:56:38.159Z,3.38
2019-03-06T05:59:06.076Z,3.32
2019-03-06T06:01:32.915Z,3.34
2019-03-06T06:03:59.492Z,3.28
2019-03-06T06:06:26.056Z,3.31
2019-03-06T06:08:52.767Z,3.26
2019-03-06T06:11:19.486Z,3.37
2019-03-06T06:13:46.079Z,3.35
2019-03-06T06:16:12.731Z,3.34
2019-03-06T06:18:39.558Z,3.28
2019-03-06T06:21:08.238Z,3.07
2019-03-06T06:23:36.746Z,3.05
2019-03-06T06:26:03.441Z,3.08
2019-03-06T06:28:29.984Z,3.37
2019-03-06T06:30:56.651Z,3.35
2019-03-06T06:33:23.284Z,3.36
2019-03-06T06:35:49.904Z,3.09
2019-03-06T06:38:16.507Z,3.17
2019-03-06T06:40:43.063Z,3.38
2019-03-06T06:43:09.704Z,3.40
2019-03-06T06:45:37.899Z,3.05
2019-03-06T06:48:09.309Z,3.12
2019-03-06T06:50:41.844Z,3.18
2019-03-06T06:53:12.578Z,3.35
2019-03-06T06:55:45.511Z,3.51
2019-03-06T06:58:17.858Z,3.55
2019-03-06T07:00:52.232Z,3.45
2019-03-06T07:03:26.793Z,3.49
2019-03-06T07:05:55.490Z,3.45
2019-03-06T07:08:24.032Z,3.26
2019-03-06T07:10:52.757Z,3.20
2019-03-06T07:13:21.251Z,3.16
2019-03-06T07:15:49.726Z,3.15
2019-03-06T07:18:18.355Z,3.37
2019-03-06T07:20:47.099Z,3.26
2019-03-06T07:23:15.905Z,3.42
2019-03-06T07:25:44.647Z,3.32
2019-03-06T07:28:13.230Z,3.24
2019-03-06T07:30:41.854Z,3.44
2019-03-06T07:33:10.931Z,3.12
2019-03-06T07:35:45.287Z,3.08
2019-03-06T07:38:12.088Z,3.03
2019-03-06T07:40:41.249Z,3.32
2019-03-06T07:43:09.831Z,3.27
2019-03-06T07:45:38.677Z,3.35
2019-03-06T07:48:07.260Z,3.48
2019-03-06T07:50:35.872Z,3.50
2019-03-06T07:53:10.181Z,3.36
2019-03-06T07:55:38.774Z,3.18
2019-03-06T07:58:11.242Z,2.99
2019-03-06T08:00:37.916Z,3.10
2019-03-06T08:03:05.989Z,3.23
2019-03-06T08:05:32.598Z,3.08
2019-03-06T08:07:59.264Z,3.33
2019-03-06T08:10:28.012Z,3.39
2019-03-06T08:12:56.806Z,3.14
2019-03-06T08:15:25.709Z,3.26
2019-03-06T08:17:52.355Z,3.18
2019-03-06T08:20:21.185Z,3.16
2019-03-06T08:22:49.683Z,3.12
2019-03-06T08:25:18.492Z,3.20
2019-03-06T08:27:45.568Z,3.28
2019-03-06T08:30:12.625Z,3.18
2019-03-06T08:32:39.481Z,3.41
2019-03-06T08:35:10.328Z,3.17
2019-03-06T08:37:37.299Z,3.39
2019-03-06T08:40:08.436Z,3.62
2019-03-06T08:42:35.625Z,3.52
2019-03-06T08:45:07.395Z,3.61
2019-03-06T08:47:36.401Z,3.76
2019-03-06T08:50:09.209Z,3.76
2019-03-06T08:52:37.906Z,3.58
2019-03-06T08:55:11.062Z,3.68
2019-03-06T08:57:40.020Z,3.87
2019-03-06T09:00:14.310Z,3.64
2019-03-06T09:02:43.637Z,3.23
2019-03-06T09:05:12.670Z,3.50
2019-03-06T09:07:41.663Z,3.75
2019-03-06T09:10:11.336Z,3.86
2019-03-06T09:12:40.086Z,3.61
2019-03-06T09:15:13.496Z,3.83
2019-03-06T09:17:42.158Z,3.90
2019-03-06T09:20:11.305Z,4.06
2019-03-06T09:22:39.893Z,4.15
2019-03-06T09:25:09.583Z,4.14
2019-03-06T09:27:38.277Z,4.25
2019-03-06T09:30:15.964Z,4.23
2019-03-06T09:32:42.367Z,4.35
2019-03-06T09:35:12.291Z,4.35
2019-03-06T09:37:41.011Z,4.37
2019-03-06T09:40:10.064Z,4.46
2019-03-06T09:42:38.991Z,4.28
2019-03-06T09:45:09.603Z,4.13
2019-03-06T09:47:38.127Z,4.08
2019-03-06T09:50:10.832Z,4.40
2019-03-06T09:52:39.497Z,4.47
2019-03-06T09:55:10.418Z,4.25
2019-03-06T09:57:39.264Z,4.10
2019-03-06T10:00:12.575Z,4.27
2019-03-06T10:02:41.178Z,4.49
2019-03-06T10:05:10.196Z,4.28
2019-03-06T10:07:38.795Z,4.35
2019-03-06T10:10:10.392Z,4.42
2019-03-06T10:12:47.361Z,4.38
2019-03-06T10:15:11.805Z,4.28
2019-03-06T10:17:40.892Z,4.19
2019-03-06T10:20:13.448Z,4.22
2019-03-06T10:22:40.121Z,4.19
2019-03-06T10:25:07.603Z,4.12
2019-03-06T10:27:34.398Z,4.33
2019-03-06T10:30:03.741Z,4.41
2019-03-06T10:32:31.725Z,4.19
2019-03-06T10:34:58.438Z,4.15
2019-03-06T10:37:25.144Z,4.21
2019-03-06T10:39:53.183Z,4.30
2019-03-06T10:42:19.907Z,4.34
2019-03-06T10:44:46.829Z,4.20
2019-03-06T10:47:13.414Z,4.22
2019-03-06T10:49:41.463Z,4.55
2019-03-06T10:52:08.293Z,4.76
2019-03-06T10:54:44.320Z,4.68
2019-03-06T10:57:05.671Z,4.71
2019-03-06T10:59:32.752Z,4.76
2019-03-06T11:01:59.779Z,4.77
2019-03-06T11:04:28.693Z,4.68
2019-03-06T11:06:55.750Z,4.75
2019-03-06T11:09:24.545Z,4.94
2019-03-06T11:11:51.591Z,4.99
2019-03-06T11:14:18.386Z,5.17
2019-03-06T11:16:45.496Z,5.46
2019-03-06T11:19:13.284Z,5.29
2019-03-06T11:21:40.194Z,5.13
2019-03-06T11:24:07.465Z,5.44
2019-03-06T11:26:35.107Z,5.62
2019-03-06T11:29:07.136Z,5.76
2019-03-06T11:31:34.311Z,6.03
2019-03-06T11:34:01.331Z,6.44
2019-03-06T11:36:31.426Z,6.26
2019-03-06T11:38:58.358Z,6.33
2019-03-06T11:41:25.364Z,6.52
2019-03-06T11:43:52.366Z,6.56
2019-03-06T11:46:19.321Z,6.52
2019-03-06T11:48:46.204Z,6.05
2019-03-06T11:51:13.174Z,6.31
2019-03-06T11:53:40.103Z,6.09
2019-03-06T11:56:07.682Z,6.22
2019-03-06T11:58:34.845Z,6.31
2019-03-06T12:01:08.301Z,6.35
2019-03-06T12:03:39.026Z,6.36
2019-03-06T12:06:05.927Z,6.54
2019-03-06T12:08:33.087Z,6.60
2019-03-06T12:10:59.748Z,6.86
2019-03-06T12:13:26.588Z,6.62
2019-03-06T12:15:53.646Z,6.73
2019-03-06T12:18:22.528Z,6.89
2019-03-06T12:20:49.620Z,6.61
2019-03-06T12:23:16.732Z,6.68
2019-03-06T12:25:43.610Z,6.73
2019-03-06T12:28:13.436Z,6.87
2019-03-06T12:30:41.014Z,7.09
2019-03-06T12:33:13.849Z,7.26
2019-03-06T12:35:40.913Z,7.19
2019-03-06T12:38:07.572Z,7.32
2019-03-06T12:40:34.472Z,7.30
2019-03-06T12:43:01.421Z,7.24
2019-03-06T12:45:28.510Z,7.35
2019-03-06T12:48:00.818Z,7.35
2019-03-06T12:50:33.858Z,7.64
2019-03-06T12:53:00.754Z,7.77
2019-03-06T12:55:27.622Z,7.82
2019-03-06T12:57:59.283Z,7.61
2019-03-06T13:00:25.373Z,7.44
2019-03-06T13:02:52.665Z,7.58
2019-03-06T13:05:22.032Z,7.88
2019-03-06T13:07:48.883Z,7.75
2019-03-06T13:10:17.345Z,7.53
2019-03-06T13:12:45.506Z,7.70
2019-03-06T13:15:17.854Z,7.66
2019-03-06T13:17:44.712Z,7.96
2019-03-06T13:20:12.536Z,8.22
2019-03-06T13:22:39.792Z,7.95
2019-03-06T13:25:09.678Z,7.91
2019-03-06T13:27:37.450Z,7.76
2019-03-06T13:30:11.427Z,7.68
2019-03-06T13:32:39.926Z,7.67
2019-03-06T13:35:07.725Z,7.72
2019-03-06T13:37:34.448Z,7.86
2019-03-06T13:40:05.456Z,8.12
2019-03-06T13:42:32.326Z,7.99
2019-03-06T13:45:06.760Z,8.07
2019-03-06T13:47:34.456Z,8.01
2019-03-06T13:50:01.557Z,7.99
2019-03-06T13:52:30.343Z,7.91
2019-03-06T13:54:57.132Z,8.13
2019-03-06T13:57:23.932Z,8.24
2019-03-06T13:59:51.702Z,8.45
2019-03-06T14:02:18.762Z,8.62
2019-03-06T14:04:45.569Z,8.83
2019-03-06T14:07:12.288Z,8.83
2019-03-06T14:09:40.166Z,8.72
2019-03-06T14:12:07.053Z,8.86
2019-03-06T14:14:33.745Z,8.81
2019-03-06T14:17:00.927Z,9.06
2019-03-06T14:19:27.644Z,9.03
2019-03-06T14:21:54.691Z,8.95
2019-03-06T14:24:21.581Z,8.96
2019-03-06T14:26:48.483Z,8.35
2019-03-06T14:29:15.296Z,8.31
2019-03-06T14:31:42.788Z,8.57
2019-03-06T14:34:09.652Z,9.11
2019-03-06T14:36:36.691Z,9.27
2019-03-06T14:39:09.149Z,9.25
2019-03-06T14:41:35.916Z,9.44
2019-03-06T14:44:02.574Z,9.36
2019-03-06T14:46:29.622Z,9.01
2019-03-06T14:48:56.176Z,9.06
2019-03-06T14:51:22.929Z,9.46
2019-03-06T14:53:49.511Z,9.12
2019-03-06T14:56:16.488Z,8.52
2019-03-06T14:58:43.757Z,8.22
2019-03-06T15:01:10.572Z,8.42
2019-03-06T15:03:37.386Z,8.36
2019-03-06T15:06:04.769Z,8.50
2019-03-06T15:08:31.664Z,7.94
2019-03-06T15:10:58.351Z,7.42
2019-03-06T15:13:25.206Z,7.04
2019-03-06T15:15:52.278Z,7.28
2019-03-06T15:18:19.705Z,7.02
2019-03-06T15:20:46.498Z,6.83
2019-03-06T15:23:13.240Z,6.71
2019-03-06T15:25:40.223Z,6.62
2019-03-06T15:28:07.308Z,6.46
2019-03-06T15:30:34.236Z,6.42
2019-03-06T15:33:01.540Z,6.21
2019-03-06T15:35:28.186Z,6.20
2019-03-06T15:37:55.091Z,6.18
2019-03-06T15:40:27.504Z,6.12
2019-03-06T15:42:54.572Z,5.98
2019-03-06T15:45:22.800Z,5.94
2019-03-06T15:47:49.802Z,5.92
2019-03-06T15:50:17.665Z,5.81
2019-03-06T15:52:44.886Z,5.74
2019-03-06T15:55:14.371Z,5.60
2019-03-06T15:57:41.390Z,5.39
2019-03-06T16:00:15.002Z,5.30
2019-03-06T16:02:41.990Z,5.33
2019-03-06T16:05:14.625Z,5.38
2019-03-06T16:07:41.302Z,5.14
2019-03-06T16:10:08.562Z,5.14
2019-03-06T16:12:35.640Z,5.07
2019-03-06T16:15:06.767Z,5.10
2019-03-06T16:17:33.710Z,4.98
2019-03-06T16:20:00.396Z,4.95
2019-03-06T16:22:26.965Z,4.87
2019-03-06T16:24:53.623Z,4.73
2019-03-06T16:27:20.342Z,4.68
2019-03-06T16:29:47.131Z,4.77
2019-03-06T16:32:14.054Z,4.77
2019-03-06T16:34:42.066Z,4.71
2019-03-06T16:37:09.301Z,4.73
2019-03-06T16:39:36.117Z,4.65
2019-03-06T16:42:03.284Z,4.61
2019-03-06T16:44:29.986Z,4.47
2019-03-06T16:47:03.704Z,4.51
2019-03-06T16:49:25.416Z,4.60
2019-03-06T16:52:48.568Z,4.54
2019-03-06T16:55:17.865Z,4.57
2019-03-06T16:57:45.471Z,4.29
2019-03-06T17:00:17.366Z,4.20
2019-03-06T17:02:44.126Z,4.25
2019-03-06T17:05:16.433Z,4.21
2019-03-06T17:07:43.540Z,4.08
2019-03-06T17:10:10.942Z,4.14
2019-03-06T17:12:37.716Z,4.16
2019-03-06T17:15:07.940Z,4.15
2019-03-06T17:17:34.769Z,4.16
2019-03-06T17:20:03.070Z,4.20
2019-03-06T17:22:30.134Z,4.17
2019-03-06T17:24:57.145Z,4.02
2019-03-06T17:27:24.238Z,3.93
2019-03-06T17:29:50.967Z,4.07
2019-03-06T17:32:17.919Z,3.88
2019-03-06T17:34:45.058Z,3.83
2019-03-06T17:37:11.852Z,3.88
2019-03-06T17:39:38.706Z,3.80
2019-03-06T17:42:05.515Z,3.83
2019-03-06T17:44:32.596Z,3.75
2019-03-06T17:46:59.294Z,3.87
2019-03-06T17:49:26.167Z,3.68
2019-03-06T17:51:52.863Z,3.67
2019-03-06T17:54:21.570Z,3.75
2019-03-06T17:56:48.495Z,3.67
2019-03-06T17:59:15.253Z,3.59
2019-03-06T18:01:42.375Z,3.66
2019-03-06T18:04:11.168Z,3.51
2019-03-06T18:06:38.132Z,3.65
2019-03-06T18:09:06.102Z,3.55
2019-03-06T18:11:35.876Z,3.65
2019-03-06T18:14:06.247Z,3.54
2019-03-06T18:16:33.287Z,3.54
2019-03-06T18:19:00.468Z,3.49
2019-03-06T18:21:27.314Z,3.23
2019-03-06T18:23:54.041Z,3.23
2019-03-06T18:26:20.605Z,3.21
2019-03-06T18:28:47.481Z,3.34
2019-03-06T18:31:14.452Z,3.44
2019-03-06T18:33:46.052Z,3.37
2019-03-06T18:36:14.368Z,3.36
2019-03-06T18:38:42.115Z,3.27
2019-03-06T18:41:09.351Z,3.24
2019-03-06T18:43:36.203Z,3.25
2019-03-06T18:46:03.092Z,3.11
2019-03-06T18:48:30.140Z,3.08
2019-03-06T18:50:57.169Z,3.09
2019-03-06T18:53:24.537Z,3.12
2019-03-06T18:55:51.693Z,3.17
2019-03-06T18:58:19.217Z,3.07
2019-03-06T19:00:46.152Z,2.94
2019-03-06T19:03:13.084Z,2.76
2019-03-06T19:05:40.380Z,3.03
2019-03-06T19:08:07.515Z,2.90
2019-03-06T19:10:34.587Z,3.01
2019-03-06T19:13:01.490Z,3.00
2019-03-06T19:15:29.371Z,3.19
2019-03-06T19:17:56.723Z,3.20
2019-03-06T19:20:23.850Z,2.96
2019-03-06T19:22:53.155Z,2.79
2019-03-06T19:25:20.585Z,2.83
2019-03-06T19:27:47.922Z,2.80
2019-03-06T19:30:19.418Z,2.96
2019-03-06T19:32:46.640Z,2.90
2019-03-06T19:35:15.371Z,2.93
2019-03-06T19:37:42.791Z,2.85
2019-03-06T19:40:13.489Z,2.97
2019-03-06T19:42:41.038Z,2.76
2019-03-06T19:45:13.567Z,2.99
2019-03-06T19:47:43.250Z,2.94
2019-03-06T19:50:14.722Z,3.00
2019-03-06T19:52:41.882Z,2.80
2019-03-06T19:55:11.279Z,2.90
2019-03-06T19:57:44.034Z,3.00
2019-03-06T20:00:10.921Z,2.72
2019-03-06T20:02:38.171Z,2.73
2019-03-06T20:05:05.383Z,2.79
2019-03-06T20:07:32.457Z,2.77
2019-03-06T20:09:59.709Z,2.53
2019-03-06T20:12:26.438Z,2.51
2019-03-06T20:14:54.007Z,2.36
2019-03-06T20:17:21.045Z,2.37
2019-03-06T20:19:49.282Z,2.24
2019-03-06T20:22:16.757Z,2.34
2019-03-06T20:24:45.645Z,2.44
2019-03-06T20:27:12.628Z,2.40
2019-03-06T20:29:39.555Z,2.50
2019-03-06T20:32:06.548Z,2.37
2019-03-06T20:34:33.386Z,2.27
2019-03-06T20:37:04.082Z,2.18
2019-03-06T20:39:31.547Z,2.24
2019-03-06T20:41:58.618Z,2.12
2019-03-06T20:44:25.540Z,2.13
2019-03-06T20:46:52.372Z,2.18
2019-03-06T20:49:19.382Z,2.17
2019-03-06T20:51:47.024Z,1.99
2019-03-06T20:54:13.982Z,1.97
2019-03-06T20:56:41.088Z,1.88
2019-03-06T20:59:08.153Z,1.83
2019-03-06T21:01:36.072Z,1.85
2019-03-06T21:04:03.257Z,1.91
2019-03-06T21:06:33.438Z,1.97
2019-03-06T21:08:58.544Z,1.78
2019-03-06T21:11:26.031Z,1.73
2019-03-06T21:13:52.587Z,1.66
2019-03-06T21:16:20.022Z,1.65
2019-03-06T21:18:46.910Z,1.56
2019-03-06T21:21:15.070Z,1.58
2019-03-06T21:23:42.131Z,1.47
2019-03-06T21:26:09.077Z,1.55
2019-03-06T21:28:35.831Z,1.43
2019-03-06T21:31:02.635Z,1.56
2019-03-06T21:33:29.595Z,1.58
2019-03-06T21:35:56.382Z,1.58
2019-03-06T21:38:23.231Z,1.46
2019-03-06T21:40:50.108Z,1.45
2019-03-06T21:43:16.917Z,1.56
2019-03-06T21:45:43.644Z,1.48
2019-03-06T21:48:10.417Z,1.38
2019-03-06T21:50:37.658Z,1.39
2019-03-06T21:53:04.682Z,1.34
2019-03-06T21:55:31.602Z,1.34
2019-03-06T21:57:58.247Z,1.46
2019-03-06T22:00:25.258Z,1.29
2019-03-06T22:02:52.230Z,1.25
2019-03-06T22:05:19.247Z,1.38
2019-03-06T22:07:46.260Z,1.33
2019-03-06T22:10:16.362Z,1.41
2019-03-06T22:12:43.827Z,1.27
2019-03-06T22:15:15.184Z,1.19
2019-03-06T22:17:42.058Z,1.29
2019-03-06T22:20:12.281Z,1.30
2019-03-06T22:22:39.179Z,1.19
2019-03-06T22:25:11.701Z,1.20
2019-03-06T22:27:38.477Z,1.23
2019-03-06T22:30:10.984Z,1.19
2019-03-06T22:32:37.940Z,1.29
2019-03-06T22:35:06.202Z,1.48
2019-03-06T22:37:32.944Z,1.33
2019-03-06T22:39:59.654Z,1.28
2019-03-06T22:42:26.472Z,1.36
2019-03-06T22:44:53.081Z,1.55
2019-03-06T22:47:19.954Z,1.46
2019-03-06T22:49:46.567Z,1.84
2019-03-06T22:52:13.196Z,1.73
2019-03-06T22:54:41.144Z,1.62
2019-03-06T22:57:07.924Z,1.52
2019-03-06T22:59:35.296Z,1.67
2019-03-06T23:02:02.193Z,1.85
2019-03-06T23:04:29.613Z,2.01
2019-03-06T23:06:56.505Z,1.99
2019-03-06T23:09:23.152Z,2.19
2019-03-06T23:11:50.028Z,2.11
2019-03-06T23:14:16.823Z,2.20
2019-03-06T23:16:43.616Z,2.45
2019-03-06T23:19:10.325Z,2.71
2019-03-06T23:21:37.130Z,2.70
2019-03-06T23:24:04.018Z,2.81
2019-03-06T23:26:30.751Z,2.93
2019-03-06T23:28:57.432Z,2.99
2019-03-06T23:31:23.995Z,3.11
2019-03-06T23:33:50.777Z,3.14
2019-03-06T23:36:18.599Z,3.11
2019-03-06T23:38:45.435Z,3.25
2019-03-06T23:41:12.059Z,3.23
2019-03-06T23:43:38.750Z,3.17
2019-03-06T23:46:05.628Z,3.15
2019-03-06T23:48:32.333Z,3.25
2019-03-06T23:51:00.915Z,3.40
2019-03-06T23:53:29.641Z,3.45
2019-03-06T23:55:56.558Z,3.48
2019-03-06T23:58:23.299Z,3.45
